createdAt,value
2023-02-27T00:02:20.406Z,86.55
2023-02-27T00:04:48.338Z,86.58
2023-02-27T00:07:17.776Z,86.66
2023-02-27T00:09:45.696Z,86.68
2023-02-27T00:12:13.638Z,86.77
2023-02-27T00:14:41.468Z,86.91
2023-02-27T00:17:09.297Z,87.03
2023-02-27T00:19:37.150Z,87.13
2023-02-27T00:22:04.990Z,87.19
2023-02-27T00:24:33.063Z,87.37
2023-02-27T00:27:03.126Z,87.35
2023-02-27T00:29:32.027Z,87.62
2023-02-27T00:32:00.286Z,88.10
2023-02-27T00:34:28.440Z,88.41
2023-02-27T00:36:56.439Z,88.60
2023-02-27T00:39:25.436Z,88.78
2023-02-27T00:41:53.331Z,88.57
2023-02-27T00:44:21.166Z,88.45
2023-02-27T00:46:51.133Z,88.35
2023-02-27T00:49:19.695Z,88.32
2023-02-27T00:51:47.644Z,88.49
2023-02-27T00:54:15.491Z,88.48
2023-02-27T00:56:43.474Z,88.86
2023-02-27T00:59:11.435Z,89.31
2023-02-27T01:01:39.260Z,89.41
2023-02-27T01:04:07.306Z,89.19
2023-02-27T01:06:35.157Z,89.13
2023-02-27T01:09:04.099Z,89.04
2023-02-27T01:11:32.066Z,89.09
2023-02-27T01:14:01.654Z,89.15
2023-02-27T01:16:31.577Z,89.23
2023-02-27T01:18:59.566Z,89.29
2023-02-27T01:21:27.600Z,89.52
2023-02-27T01:23:55.531Z,89.60
2023-02-27T01:26:23.389Z,89.50
2023-02-27T01:28:51.272Z,89.41
2023-02-27T01:31:19.163Z,89.42
2023-02-27T01:33:49.298Z,89.33
2023-02-27T01:36:17.117Z,89.24
2023-02-27T01:38:45.036Z,89.10
2023-02-27T01:41:13.156Z,89.12
2023-02-27T01:43:57.780Z,89.16
2023-02-27T01:46:26.460Z,89.16
2023-02-27T01:48:59.684Z,89.23
2023-02-27T01:51:34.020Z,89.24
2023-02-27T01:54:05.170Z,89.31
2023-02-27T01:56:33.326Z,89.41
2023-02-27T01:59:07.439Z,89.47
2023-02-27T02:01:35.821Z,89.65
2023-02-27T02:04:28.355Z,90.02
2023-02-27T02:07:09.231Z,90.24
2023-02-27T02:12:33.998Z,90.55
2023-02-27T02:15:02.785Z,90.88
2023-02-27T02:17:48.027Z,90.91
2023-02-27T02:20:53.197Z,91.30
2023-02-27T02:23:48.515Z,91.24
2023-02-27T02:26:25.381Z,91.22
2023-02-27T02:29:25.783Z,91.20
2023-02-27T02:32:19.813Z,91.41
2023-02-27T02:35:15.637Z,91.25
2023-02-27T02:38:21.364Z,91.11
2023-02-27T02:40:56.600Z,91.14
2023-02-27T02:43:30.692Z,91.10
2023-02-27T02:46:15.993Z,91.12
2023-02-27T02:48:55.962Z,91.15
2023-02-27T02:51:31.740Z,91.24
2023-02-27T02:54:02.319Z,91.24
2023-02-27T02:56:37.256Z,91.34
2023-02-27T02:59:14.820Z,91.52
2023-02-27T03:01:54.126Z,91.65
2023-02-27T03:04:46.635Z,91.81
2023-02-27T03:07:53.957Z,91.89
2023-02-27T03:10:48.933Z,91.98
2023-02-27T03:13:24.976Z,92.06
2023-02-27T03:16:02.451Z,92.12
2023-02-27T03:19:02.400Z,92.20
2023-02-27T03:21:43.888Z,92.21
2023-02-27T03:24:23.418Z,92.25
2023-02-27T03:26:55.046Z,92.32
2023-02-27T03:29:30.460Z,92.38
2023-02-27T03:32:03.695Z,92.47
2023-02-27T03:34:37.634Z,92.46
2023-02-27T03:37:34.844Z,92.44
2023-02-27T03:40:23.882Z,92.63
2023-02-27T03:43:07.807Z,92.70
2023-02-27T03:46:11.233Z,92.77
2023-02-27T03:48:44.810Z,93.09
2023-02-27T03:51:21.030Z,93.28
2023-02-27T03:53:54.894Z,93.25
2023-02-27T03:56:30.818Z,93.25
2023-02-27T03:59:00.085Z,93.51
2023-02-27T04:01:29.239Z,93.61
2023-02-27T04:04:10.116Z,93.64
2023-02-27T04:07:36.391Z,93.69
2023-02-27T04:10:41.126Z,93.81
2023-02-27T04:13:30.692Z,93.83
2023-02-27T04:16:23.356Z,93.80
2023-02-27T04:19:09.684Z,93.78
2023-02-27T04:21:49.582Z,93.69
2023-02-27T04:24:31.714Z,93.72
2023-02-27T04:27:26.224Z,93.90
2023-02-27T04:30:11.598Z,94.04
2023-02-27T04:33:02.228Z,94.57
2023-02-27T04:35:39.388Z,94.94
2023-02-27T04:38:18.786Z,94.88
2023-02-27T04:40:56.484Z,94.78
2023-02-27T04:43:27.788Z,94.76
2023-02-27T04:45:59.418Z,94.54
2023-02-27T04:48:33.253Z,94.32
2023-02-27T04:51:11.341Z,94.12
2023-02-27T04:54:07.149Z,94.23
2023-02-27T04:56:57.745Z,94.30
2023-02-27T04:59:29.770Z,94.51
2023-02-27T05:02:03.437Z,94.68
2023-02-27T05:04:36.065Z,94.84
2023-02-27T05:07:09.448Z,94.79
2023-02-27T05:10:10.694Z,95.08
2023-02-27T05:12:48.211Z,95.10
2023-02-27T05:15:40.748Z,95.27
2023-02-27T05:18:11.749Z,95.93
2023-02-27T05:21:01.593Z,95.86
2023-02-27T05:23:35.489Z,95.73
2023-02-27T05:26:38.814Z,95.62
2023-02-27T05:29:13.215Z,95.56
2023-02-27T05:32:11.688Z,95.53
2023-02-27T05:34:49.241Z,95.45
2023-02-27T05:37:48.170Z,95.30
2023-02-27T05:40:24.941Z,95.30
2023-02-27T05:43:16.916Z,95.27
2023-02-27T05:45:48.123Z,95.18
2023-02-27T05:48:21.631Z,95.23
2023-02-27T05:50:52.374Z,95.36
2023-02-27T05:53:23.614Z,95.76
2023-02-27T05:55:54.444Z,95.73
2023-02-27T05:58:44.395Z,96.01
2023-02-27T06:01:13.207Z,96.23
2023-02-27T06:03:41.926Z,96.24
2023-02-27T06:06:14.753Z,96.28
2023-02-27T06:08:43.660Z,96.22
2023-02-27T06:11:12.047Z,96.50
2023-02-27T06:13:42.139Z,96.43
2023-02-27T06:16:12.712Z,96.55
2023-02-27T06:18:41.281Z,96.33
2023-02-27T06:21:09.876Z,96.37
2023-02-27T06:23:38.317Z,96.28
2023-02-27T06:26:06.548Z,96.22
2023-02-27T06:28:34.585Z,96.16
2023-02-27T06:31:03.261Z,95.98
2023-02-27T06:33:31.336Z,95.99
2023-02-27T06:35:59.156Z,95.92
2023-02-27T06:38:27.119Z,95.82
2023-02-27T06:40:55.346Z,95.97
2023-02-27T06:43:23.256Z,96.08
2023-02-27T06:45:54.449Z,95.95
2023-02-27T06:48:22.950Z,96.01
2023-02-27T06:50:56.436Z,95.95
2023-02-27T06:53:25.725Z,95.80
2023-02-27T06:55:53.707Z,95.79
2023-02-27T06:58:22.014Z,95.86
2023-02-27T07:00:50.073Z,95.79
2023-02-27T07:03:18.009Z,95.80
2023-02-27T07:05:45.887Z,95.77
2023-02-27T07:08:17.652Z,95.78
2023-02-27T07:10:47.207Z,95.79
2023-02-27T07:13:18.434Z,93.58
2023-02-27T07:15:47.790Z,90.20
2023-02-27T07:18:15.666Z,86.55
2023-02-27T07:20:43.620Z,83.88
2023-02-27T07:23:11.489Z,81.37
2023-02-27T07:25:39.463Z,80.65
2023-02-27T07:28:07.455Z,79.15
2023-02-27T07:30:35.417Z,77.82
2023-02-27T07:33:03.351Z,77.30
2023-02-27T07:35:31.492Z,75.88
2023-02-27T07:37:59.650Z,74.97
2023-02-27T07:40:27.691Z,74.45
2023-02-27T07:42:55.709Z,74.79
2023-02-27T07:45:23.712Z,74.53
2023-02-27T07:47:51.719Z,73.31
2023-02-27T07:50:19.766Z,73.02
2023-02-27T07:52:47.732Z,73.43
2023-02-27T07:55:16.015Z,72.90
2023-02-27T07:57:45.829Z,71.28
2023-02-27T08:00:14.541Z,73.03
2023-02-27T08:02:42.500Z,72.36
2023-02-27T08:05:10.590Z,72.65
2023-02-27T08:07:38.630Z,73.24
2023-02-27T08:10:07.189Z,72.56
2023-02-27T08:12:35.132Z,72.87
2023-02-27T08:15:03.261Z,72.28
2023-02-27T08:17:31.203Z,73.36
2023-02-27T08:19:59.132Z,76.69
2023-02-27T08:22:26.987Z,78.18
2023-02-27T08:24:54.897Z,79.58
2023-02-27T08:27:22.941Z,81.41
2023-02-27T08:29:50.762Z,81.97
2023-02-27T08:32:18.713Z,82.40
2023-02-27T08:34:46.686Z,82.59
2023-02-27T08:37:14.553Z,82.37
2023-02-27T08:39:42.458Z,82.30
2023-02-27T08:42:10.368Z,82.04
2023-02-27T08:44:38.380Z,81.82
2023-02-27T08:47:06.238Z,81.73
2023-02-27T08:49:34.023Z,82.04
2023-02-27T08:52:03.725Z,82.26
2023-02-27T08:54:32.119Z,82.14
2023-02-27T08:57:00.166Z,82.12
2023-02-27T08:59:27.968Z,82.19
2023-02-27T09:01:55.940Z,82.21
2023-02-27T09:04:23.805Z,82.01
2023-02-27T09:06:53.583Z,81.94
2023-02-27T09:09:23.794Z,81.37
2023-02-27T09:11:52.119Z,81.70
2023-02-27T09:14:20.310Z,81.65
2023-02-27T09:16:48.268Z,81.36
2023-02-27T09:19:16.296Z,80.65
2023-02-27T09:21:44.071Z,80.36
2023-02-27T09:24:19.799Z,80.35
2023-02-27T09:26:49.244Z,80.11
2023-02-27T09:29:17.906Z,79.81
2023-02-27T09:31:45.831Z,79.57
2023-02-27T09:34:13.995Z,78.96
2023-02-27T09:36:41.890Z,78.67
2023-02-27T09:39:10.446Z,78.73
2023-02-27T09:42:09.689Z,78.02
2023-02-27T09:44:47.824Z,77.83
2023-02-27T09:47:37.901Z,77.56
2023-02-27T09:50:08.240Z,77.53
2023-02-27T09:52:37.908Z,77.25
2023-02-27T09:55:19.017Z,76.77
2023-02-27T09:58:10.423Z,76.75
2023-02-27T10:00:49.375Z,76.76
2023-02-27T10:03:17.154Z,76.77
2023-02-27T10:05:57.192Z,76.66
2023-02-27T10:08:50.546Z,76.62
2023-02-27T10:11:25.982Z,75.88
2023-02-27T10:14:01.622Z,75.94
2023-02-27T10:16:32.262Z,76.34
2023-02-27T10:19:06.918Z,75.70
2023-02-27T10:21:48.288Z,75.23
2023-02-27T10:24:27.636Z,75.98
2023-02-27T10:26:59.342Z,75.93
2023-02-27T10:29:33.834Z,76.79
2023-02-27T10:32:04.338Z,75.68
2023-02-27T10:34:34.384Z,76.21
2023-02-27T10:37:04.949Z,75.54
2023-02-27T10:39:42.976Z,75.87
2023-02-27T10:42:15.075Z,74.41
2023-02-27T10:44:43.179Z,74.15
2023-02-27T10:47:16.481Z,74.58
2023-02-27T10:49:44.818Z,74.71
2023-02-27T10:52:15.288Z,74.42
2023-02-27T10:54:43.754Z,71.60
2023-02-27T10:57:26.781Z,71.50
2023-02-27T11:00:01.705Z,72.63
2023-02-27T11:02:52.117Z,71.24
2023-02-27T11:05:27.443Z,72.05
2023-02-27T11:08:10.526Z,69.78
2023-02-27T11:10:52.363Z,68.68
2023-02-27T11:13:22.049Z,69.50
2023-02-27T11:16:21.816Z,69.17
2023-02-27T11:18:51.614Z,67.86
2023-02-27T11:21:24.112Z,67.10
2023-02-27T11:23:53.579Z,66.32
2023-02-27T11:26:33.243Z,66.52
2023-02-27T11:29:06.628Z,67.33
2023-02-27T11:31:37.801Z,66.68
2023-02-27T11:34:08.353Z,66.81
2023-02-27T11:36:45.751Z,65.73
2023-02-27T11:39:37.003Z,66.64
2023-02-27T11:42:33.777Z,66.00
2023-02-27T11:46:04.191Z,65.79
2023-02-27T11:48:37.901Z,64.60
2023-02-27T11:51:11.914Z,63.65
2023-02-27T11:53:52.459Z,64.18
2023-02-27T11:56:39.167Z,63.62
2023-02-27T11:59:10.104Z,64.73
2023-02-27T12:02:04.096Z,65.10
2023-02-27T12:04:46.911Z,64.85
2023-02-27T12:07:34.144Z,65.58
2023-02-27T12:10:18.597Z,64.65
2023-02-27T12:12:52.264Z,65.25
2023-02-27T12:15:53.532Z,64.99
2023-02-27T12:18:38.571Z,63.89
2023-02-27T12:21:16.766Z,63.54
2023-02-27T12:23:57.014Z,64.82
2023-02-27T12:26:38.346Z,64.80
2023-02-27T12:29:33.007Z,64.85
2023-02-27T12:32:26.094Z,65.81
2023-02-27T12:35:18.276Z,66.09
2023-02-27T12:37:46.590Z,65.94
2023-02-27T12:40:17.380Z,64.79
2023-02-27T12:43:05.768Z,64.21
2023-02-27T12:45:51.594Z,63.87
2023-02-27T12:48:19.854Z,64.70
2023-02-27T12:50:47.900Z,65.24
2023-02-27T12:53:33.808Z,65.66
2023-02-27T12:56:06.092Z,65.92
2023-02-27T12:58:48.765Z,65.37
2023-02-27T13:01:32.032Z,64.78
2023-02-27T13:04:24.202Z,63.93
2023-02-27T13:07:13.434Z,64.93
2023-02-27T13:09:46.956Z,64.86
2023-02-27T13:12:35.710Z,64.98
2023-02-27T13:15:14.678Z,65.46
2023-02-27T13:18:08.726Z,65.93
2023-02-27T13:20:52.219Z,66.67
2023-02-27T13:23:38.673Z,65.97
2023-02-27T13:26:30.567Z,65.07
2023-02-27T13:29:00.874Z,64.83
2023-02-27T13:31:53.513Z,64.18
2023-02-27T13:34:37.449Z,64.04
2023-02-27T13:37:09.647Z,64.76
2023-02-27T13:39:50.171Z,64.49
2023-02-27T13:42:27.185Z,63.80
2023-02-27T13:44:58.954Z,63.39
2023-02-27T13:47:50.004Z,62.43
2023-02-27T13:50:17.902Z,61.98
2023-02-27T13:52:46.903Z,61.13
2023-02-27T13:55:36.901Z,60.77
2023-02-27T13:58:05.874Z,61.00
2023-02-27T14:00:37.946Z,61.38
2023-02-27T14:03:20.446Z,61.60
2023-02-27T14:05:51.656Z,61.51
2023-02-27T14:08:29.272Z,60.74
2023-02-27T14:11:23.788Z,61.01
2023-02-27T14:13:52.142Z,60.94
2023-02-27T14:16:39.086Z,62.81
2023-02-27T14:19:15.749Z,63.85
2023-02-27T14:21:52.723Z,65.02
2023-02-27T14:24:36.309Z,64.86
2023-02-27T14:27:14.436Z,65.44
2023-02-27T14:29:48.599Z,65.24
2023-02-27T14:32:24.719Z,64.40
2023-02-27T14:34:54.848Z,64.08
2023-02-27T14:37:26.055Z,63.94
2023-02-27T14:39:55.479Z,64.52
2023-02-27T14:43:05.266Z,63.94
2023-02-27T14:45:33.443Z,63.87
2023-02-27T14:48:01.657Z,61.95
2023-02-27T14:50:37.389Z,62.33
2023-02-27T14:53:21.317Z,61.54
2023-02-27T14:55:59.558Z,60.93
2023-02-27T14:58:28.363Z,61.48
2023-02-27T15:01:08.732Z,61.51
2023-02-27T15:03:52.394Z,61.96
2023-02-27T15:06:33.407Z,61.84
2023-02-27T15:09:01.485Z,61.85
2023-02-27T15:11:30.007Z,61.63
2023-02-27T15:14:03.578Z,62.32
2023-02-27T15:16:35.884Z,62.47
2023-02-27T15:19:19.147Z,62.54
2023-02-27T15:21:52.977Z,62.61
2023-02-27T15:24:35.296Z,62.12
2023-02-27T15:27:17.077Z,62.61
2023-02-27T15:29:52.368Z,64.03
2023-02-27T15:32:41.288Z,64.55
2023-02-27T15:35:26.900Z,65.06
2023-02-27T15:37:57.628Z,65.01
2023-02-27T15:40:28.619Z,64.60
2023-02-27T15:42:58.153Z,63.71
2023-02-27T15:45:31.248Z,63.32
2023-02-27T15:47:59.590Z,63.37
2023-02-27T15:50:41.090Z,63.29
2023-02-27T15:53:12.271Z,63.25
2023-02-27T15:55:47.316Z,63.00
2023-02-27T15:58:21.337Z,62.98
2023-02-27T16:00:52.920Z,64.08
2023-02-27T16:03:24.166Z,64.35
2023-02-27T16:05:53.534Z,64.97
2023-02-27T16:08:21.902Z,65.50
2023-02-27T16:10:50.861Z,65.76
2023-02-27T16:13:21.590Z,65.74
2023-02-27T16:16:23.375Z,65.88
2023-02-27T16:18:59.800Z,66.30
2023-02-27T16:21:33.401Z,66.39
2023-02-27T16:24:21.600Z,66.25
2023-02-27T16:26:52.715Z,66.57
2023-02-27T16:29:23.138Z,65.80
2023-02-27T16:31:56.640Z,66.00
2023-02-27T16:34:45.515Z,65.43
2023-02-27T16:37:30.738Z,66.28
2023-02-27T16:39:58.535Z,66.87
2023-02-27T16:42:26.404Z,67.39
2023-02-27T16:44:54.460Z,67.74
2023-02-27T16:47:22.956Z,68.02
2023-02-27T16:49:51.015Z,68.53
2023-02-27T16:52:18.862Z,68.37
2023-02-27T16:54:46.726Z,68.68
2023-02-27T16:57:14.660Z,69.02
2023-02-27T16:59:44.061Z,69.29
2023-02-27T17:02:14.499Z,69.84
2023-02-27T17:04:47.917Z,70.30
2023-02-27T17:07:17.161Z,70.64
2023-02-27T17:09:46.217Z,70.87
2023-02-27T17:12:14.334Z,71.40
2023-02-27T17:14:42.358Z,71.54
2023-02-27T17:17:11.487Z,71.78
2023-02-27T17:19:39.902Z,72.13
2023-02-27T17:22:08.084Z,72.38
2023-02-27T17:24:36.643Z,72.73
2023-02-27T17:27:04.981Z,72.89
2023-02-27T17:29:32.845Z,73.09
2023-02-27T17:32:00.920Z,73.28
2023-02-27T17:34:29.242Z,73.29
2023-02-27T17:36:57.844Z,73.29
2023-02-27T17:39:25.902Z,73.36
2023-02-27T17:41:54.477Z,73.59
2023-02-27T17:44:22.456Z,74.06
2023-02-27T17:46:50.443Z,74.31
2023-02-27T17:49:18.703Z,74.20
2023-02-27T17:51:46.902Z,74.65
2023-02-27T17:54:15.154Z,75.14
2023-02-27T17:56:43.589Z,75.31
2023-02-27T17:59:11.773Z,75.63
2023-02-27T18:01:39.887Z,75.92
2023-02-27T18:04:11.323Z,76.19
2023-02-27T18:06:39.585Z,76.47
2023-02-27T18:09:07.638Z,76.44
2023-02-27T18:11:37.418Z,76.49
2023-02-27T18:14:05.748Z,76.62
2023-02-27T18:16:33.911Z,76.86
2023-02-27T18:19:07.888Z,76.48
2023-02-27T18:21:36.137Z,76.69
2023-02-27T18:24:04.998Z,76.71
2023-02-27T18:26:33.522Z,76.80
2023-02-27T18:29:08.371Z,76.76
2023-02-27T18:31:39.408Z,76.94
2023-02-27T18:34:07.973Z,77.13
2023-02-27T18:36:36.621Z,77.27
2023-02-27T18:39:06.821Z,77.51
2023-02-27T18:41:35.230Z,77.81
2023-02-27T18:44:04.126Z,78.07
2023-02-27T18:46:32.994Z,78.48
2023-02-27T18:49:01.443Z,78.82
2023-02-27T18:51:29.677Z,79.13
2023-02-27T18:53:59.667Z,79.53
2023-02-27T18:56:30.432Z,79.64
2023-02-27T18:59:02.233Z,80.02
2023-02-27T19:01:32.405Z,80.24
2023-02-27T19:04:04.189Z,80.48
2023-02-27T19:06:40.555Z,80.75
2023-02-27T19:09:11.702Z,80.91
2023-02-27T19:11:39.795Z,81.05
2023-02-27T19:14:10.648Z,81.12
2023-02-27T19:16:38.686Z,81.29
2023-02-27T19:19:09.690Z,81.47
2023-02-27T19:21:37.813Z,81.77
2023-02-27T19:24:06.924Z,81.99
2023-02-27T19:26:35.083Z,82.32
2023-02-27T19:29:04.220Z,82.47
2023-02-27T19:31:32.697Z,82.73
2023-02-27T19:34:00.952Z,82.88
2023-02-27T19:36:30.807Z,83.00
2023-02-27T19:38:59.345Z,83.33
2023-02-27T19:41:27.824Z,83.47
2023-02-27T19:43:56.111Z,83.62
2023-02-27T19:46:28.194Z,83.88
2023-02-27T19:49:03.050Z,83.98
2023-02-27T19:51:31.451Z,84.06
2023-02-27T19:53:59.788Z,84.15
2023-02-27T19:56:29.765Z,84.17
2023-02-27T19:58:59.680Z,84.23
2023-02-27T20:01:31.411Z,84.53
2023-02-27T20:04:00.623Z,84.90
2023-02-27T20:06:33.146Z,84.86
2023-02-27T20:09:01.522Z,85.04
2023-02-27T20:11:31.545Z,85.32
2023-02-27T20:13:59.868Z,85.62
2023-02-27T20:16:32.165Z,85.72
2023-02-27T20:19:00.444Z,85.98
2023-02-27T20:21:29.536Z,86.06
2023-02-27T20:23:58.724Z,86.20
2023-02-27T20:26:31.365Z,86.72
2023-02-27T20:29:11.280Z,86.92
2023-02-27T20:31:41.833Z,86.99
2023-02-27T20:34:12.225Z,87.08
2023-02-27T20:36:40.758Z,87.14
2023-02-27T20:39:10.808Z,87.16
2023-02-27T20:41:40.420Z,87.21
2023-02-27T20:44:08.991Z,87.23
2023-02-27T20:46:39.189Z,87.26
2023-02-27T20:49:07.904Z,87.35
2023-02-27T20:51:38.079Z,87.52
2023-02-27T20:54:11.379Z,87.87
2023-02-27T20:56:41.926Z,88.15
2023-02-27T20:59:14.413Z,88.60
2023-02-27T21:01:51.237Z,88.63
2023-02-27T21:04:42.210Z,88.50
2023-02-27T21:07:16.356Z,88.70
2023-02-27T21:09:44.926Z,88.65
2023-02-27T21:12:13.697Z,88.69
2023-02-27T21:14:44.520Z,88.99
2023-02-27T21:17:13.705Z,89.09
2023-02-27T21:19:42.098Z,89.19
2023-02-27T21:22:11.473Z,89.30
2023-02-27T21:24:40.304Z,89.57
2023-02-27T21:27:08.688Z,89.79
2023-02-27T21:29:36.936Z,90.02
2023-02-27T21:32:05.941Z,90.04
2023-02-27T21:34:34.559Z,90.11
2023-02-27T21:37:06.365Z,90.47
2023-02-27T21:39:34.803Z,90.44
2023-02-27T21:42:03.068Z,90.65
2023-02-27T21:44:32.021Z,90.78
2023-02-27T21:47:08.189Z,91.12
2023-02-27T21:49:36.875Z,91.04
2023-02-27T21:52:05.082Z,91.27
2023-02-27T21:54:33.488Z,91.04
2023-02-27T21:57:03.135Z,90.86
2023-02-27T21:59:31.249Z,91.12
2023-02-27T22:01:59.376Z,91.52
2023-02-27T22:04:27.422Z,91.50
2023-02-27T22:06:55.512Z,91.65
2023-02-27T22:09:23.564Z,91.48
2023-02-27T22:11:51.669Z,91.53
2023-02-27T22:14:19.722Z,91.58
2023-02-27T22:16:47.743Z,91.65
2023-02-27T22:19:20.014Z,91.73
2023-02-27T22:21:48.440Z,92.27
2023-02-27T22:24:16.449Z,92.22
2023-02-27T22:26:45.748Z,92.20
2023-02-27T22:29:13.842Z,92.14
2023-02-27T22:31:42.173Z,92.11
2023-02-27T22:34:18.400Z,92.12
2023-02-27T22:36:52.627Z,91.86
2023-02-27T22:39:21.392Z,91.89
2023-02-27T22:41:49.577Z,92.06
2023-02-27T22:44:17.607Z,91.85
2023-02-27T22:46:49.575Z,91.71
2023-02-27T22:49:23.341Z,91.58
2023-02-27T22:51:52.561Z,91.45
2023-02-27T22:54:22.645Z,91.61
2023-02-27T22:56:56.396Z,91.59
2023-02-27T22:59:26.289Z,91.46
2023-02-27T23:01:54.534Z,91.44
2023-02-27T23:04:22.538Z,91.41
2023-02-27T23:06:52.824Z,91.41
2023-02-27T23:09:24.167Z,91.45
2023-02-27T23:11:52.036Z,91.45
2023-02-27T23:14:21.554Z,91.57
2023-02-27T23:16:49.663Z,91.78
2023-02-27T23:19:20.837Z,91.87
2023-02-27T23:21:49.141Z,91.91
2023-02-27T23:24:18.829Z,92.00
2023-02-27T23:26:52.358Z,91.95
2023-02-27T23:29:20.760Z,91.86
2023-02-27T23:31:48.858Z,91.89
2023-02-27T23:34:16.871Z,91.79
2023-02-27T23:36:44.815Z,91.85
2023-02-27T23:39:12.711Z,91.97
2023-02-27T23:41:40.579Z,91.88
2023-02-27T23:44:08.445Z,91.84
2023-02-27T23:46:36.402Z,91.76
2023-02-27T23:49:04.368Z,91.63
2023-02-27T23:51:33.318Z,91.41
2023-02-27T23:54:01.452Z,91.51
2023-02-27T23:56:30.912Z,91.35
2023-02-27T23:59:05.021Z,91.39
